Saturday, March 28, 2015, 10:19 AM EDT
Back to Local

KMPO, Mt Pocono Pocono Mountains

Location: Pocono Summit, PA, United States Lat: 41.133
Local Time: 10:19 AM EDT (14:19 GMT) Lon: -75.383
Time Zone: US/Eastern Elev: 1915 ft

Show me the last for .
Show Decoded

2015-03-28 09:53 METAR KMPO 281353Z AUTO 33016G27KT 10SM FEW019 M05/M11 A2979 RMK AO2 PK WND
                 33027/1351 SLP110 T10501106 =
2015-03-28 08:53 METAR KMPO 281253Z AUTO 32014G23KT 10SM FEW019 OVC060 M05/M10 A2978 RMK AO2
                 SLP106 T10501100 =
2015-03-28 07:53 METAR KMPO 281153Z AUTO 33011G24KT 10SM SCT019 BKN095 M05/M10 A2976 RMK AO2 PK
                 WND 32026/1137 SLP101 T10501100 11033 21056 53008 =
2015-03-28 06:53 METAR KMPO 281053Z AUTO 32012G17KT 10SM BKN019 OVC110 M05/M09 A2975 RMK AO2
                 SLP094 T10501094 =
2015-03-28 06:26 METAR KMPO 281026Z AUTO 33011G20KT 10SM SCT020 OVC110 M05/M10 A2974 RMK AO2
                 T10501100 =
2015-03-28 06:12 METAR KMPO 281012Z AUTO 34011G22KT 10SM BKN020 BKN120 M05/M10 A2973 RMK AO2
                 T10501100 =
2015-03-28 05:53 METAR KMPO 280953Z AUTO 33015G23KT 10SM CLR M05/M10 A2973 RMK AO2 SLP087
                 T10501100 =
2015-03-28 05:38 METAR KMPO 280938Z AUTO 33014G22KT 10SM FEW023 M04/M10 A2973 RMK AO2 T10441100 =
2015-03-28 04:53 METAR KMPO 280853Z AUTO 34011G17KT 10SM SCT023 M04/M09 A2974 RMK AO2 SLP090
                 T10441094 55005 =
2015-03-28 01:53 METAR KMPO 280553Z AUTO 34009KT 10SM OVC021 M02/M07 A2975 RMK AO2 SLP095
                 T10221072 10000 21022 58003 =
2015-03-28 00:36 METAR KMPO 280436Z AUTO 36009KT 10SM SCT018 BKN023 OVC034 M02/M06 A2976 RMK AO2
                 T10171061 =
2015-03-28 00:20 METAR KMPO 280420Z AUTO 35009KT 10SM SCT018 BKN037 M02/M06 A2976 RMK AO2
                 T10171061 =
2015-03-27 23:53 METAR KMPO 280353Z AUTO 35009KT 10SM BKN016 BKN021 OVC029 M01/M05 A2977 RMK AO2
                 SLP098 T10111050 =
2015-03-27 22:53 METAR KMPO 280253Z AUTO 36007KT 10SM SCT038 BKN047 M01/M06 A2977 RMK AO2 SLP098
                 T10111056 51015 =
2015-03-27 21:53 METAR KMPO 280153Z AUTO 36006KT 10SM BKN044 M01/M06 A2975 RMK AO2 SLP092
                 T10061056 =
2015-03-27 20:53 METAR KMPO 280053Z AUTO 33006KT 10SM OVC041 00/M06 A2975 RMK AO2 SLP091
                 T00001056 =
2015-03-27 19:53 METAR KMPO 272353Z AUTO 33005KT 10SM FEW040 00/M06 A2972 RMK AO2 SLP081
                 T00001061 10028 20000 53010 =
2015-03-27 18:53 METAR KMPO 272253Z AUTO 34008KT 10SM OVC037 02/M06 A2971 RMK AO2 SLP077
                 T00171061 =
2015-03-27 17:53 METAR KMPO 272153Z AUTO 33011G16KT 10SM BKN036 02/M06 A2969 RMK AO2 SLP069
                 T00221061 =
2015-03-27 16:53 METAR KMPO 272053Z AUTO 32010G17KT 10SM SCT036 02/M06 A2969 RMK AO2 SLP068
                 T00221056 56010 =
2015-03-27 15:53 METAR KMPO 271953Z AUTO 01009KT 10SM OVC031 03/M05 A2969 RMK AO2 SLP070
                 T00281050 =
2015-03-27 15:15 METAR KMPO 271915Z AUTO 31008KT 10SM OVC031 02/M06 A2970 RMK AO2 T00221056 =
2015-03-27 14:53 METAR KMPO 271853Z AUTO 34010G17KT 10SM BKN027 02/M05 A2970 RMK AO2 SLP074
                 T00171050 =
2015-03-27 13:53 METAR KMPO 271753Z AUTO 32007G17KT 10SM BKN026 OVC032 01/M04 A2972 RMK AO2
                 SLP080 T00111044 10017 20006 53001 =
2015-03-27 12:53 METAR KMPO 271653Z AUTO 34012G17KT 10SM OVC017 01/M03 A2969 RMK AO2 SLP069
                 T00111033 =
2015-03-27 11:53 METAR KMPO 271553Z AUTO 33007KT 10SM BKN020 OVC027 01/M03 A2972 RMK AO2 SLP077
                 T00111033 =
2015-03-27 10:53 METAR KMPO 271453Z AUTO 34007KT 10SM SCT018 OVC025 01/M03 A2972 RMK AO2 SLP077
                 T00111033 53002 =

Support USWX by starting your Amazon purchase here.